createdAt,value
2023-03-18T00:04:47.682Z,2.67
2023-03-18T00:10:50.965Z,2.90
2023-03-18T00:16:52.712Z,2.42
2023-03-18T00:22:55.634Z,2.30
2023-03-18T00:28:58.535Z,3.30
2023-03-18T00:35:01.531Z,2.50
2023-03-18T00:41:12.664Z,2.72
2023-03-18T00:47:14.407Z,2.60
2023-03-18T00:53:16.957Z,2.40
2023-03-18T00:59:21.778Z,2.53
2023-03-18T01:05:25.391Z,2.90
2023-03-18T01:11:29.146Z,3.53
2023-03-18T01:17:31.925Z,3.47
2023-03-18T01:23:34.320Z,3.17
2023-03-18T01:29:36.252Z,3.30
2023-03-18T01:35:41.212Z,2.80
2023-03-18T01:41:45.097Z,2.60
2023-03-18T01:53:57.690Z,3.03
2023-03-18T02:00:01.671Z,3.20
2023-03-18T02:06:05.034Z,2.72
2023-03-18T02:12:12.673Z,3.25
2023-03-18T02:24:34.512Z,3.23
2023-03-18T02:30:47.665Z,3.10
2023-03-18T02:36:51.010Z,2.95
2023-03-18T02:42:52.907Z,3.10
2023-03-18T02:48:56.059Z,3.05
2023-03-18T02:54:59.289Z,3.00
2023-03-18T03:01:04.631Z,3.35
2023-03-18T03:07:06.809Z,3.03
2023-03-18T03:13:22.193Z,2.90
2023-03-18T03:19:24.967Z,3.53
2023-03-18T03:25:27.494Z,3.53
2023-03-18T03:31:29.400Z,3.03
2023-03-18T03:37:32.278Z,3.60
2023-03-18T03:43:34.059Z,4.03
2023-03-18T03:49:35.952Z,3.53
2023-03-18T03:55:38.011Z,4.03
2023-03-18T04:01:40.699Z,4.35
2023-03-18T04:07:44.224Z,4.38
2023-03-18T04:13:47.467Z,3.95
2023-03-18T04:19:50.556Z,4.05
2023-03-18T04:25:53.712Z,3.97
2023-03-18T04:31:56.981Z,4.20
2023-03-18T04:38:00.913Z,4.20
2023-03-18T04:44:04.476Z,3.67
2023-03-18T04:50:15.429Z,3.40
2023-03-18T04:56:18.177Z,3.90
2023-03-18T05:02:25.388Z,3.83
2023-03-18T05:08:28.077Z,3.47
2023-03-18T05:14:32.435Z,3.53
2023-03-18T05:20:36.471Z,4.10
2023-03-18T05:26:40.193Z,3.50
2023-03-18T05:32:44.221Z,4.03
2023-03-18T05:38:50.621Z,4.15
2023-03-18T05:44:53.212Z,3.97
2023-03-18T05:50:58.875Z,3.83
2023-03-18T05:57:04.737Z,4.15
2023-03-18T06:03:07.791Z,3.78
2023-03-18T06:09:12.316Z,4.03
2023-03-18T06:15:17.774Z,3.53
2023-03-18T06:21:21.399Z,3.75
2023-03-18T06:27:24.369Z,3.70
2023-03-18T06:33:31.473Z,3.93
2023-03-18T06:39:34.930Z,3.60
2023-03-18T06:45:40.897Z,3.97
2023-03-18T06:51:44.726Z,3.80
2023-03-18T06:57:48.374Z,3.85
2023-03-18T07:03:55.125Z,3.43
2023-03-18T07:09:57.450Z,3.38
2023-03-18T07:16:00.709Z,3.70
2023-03-18T07:22:03.691Z,3.42
2023-03-18T07:28:08.506Z,3.33
2023-03-18T07:34:11.709Z,3.10
2023-03-18T07:40:14.960Z,3.00
2023-03-18T07:46:17.412Z,3.13
2023-03-18T07:52:20.445Z,3.00
2023-03-18T07:58:23.044Z,3.90
2023-03-18T08:04:25.662Z,3.50
2023-03-18T08:10:31.641Z,4.03
2023-03-18T08:16:33.863Z,4.03
2023-03-18T08:22:37.139Z,4.15
2023-03-18T08:28:39.959Z,4.13
2023-03-18T08:34:42.959Z,4.03
2023-03-18T08:40:46.932Z,4.13
2023-03-18T08:46:49.817Z,3.83
2023-03-18T08:52:52.400Z,3.53
2023-03-18T08:58:55.103Z,3.97
2023-03-18T09:04:57.697Z,3.90
2023-03-18T09:11:00.445Z,4.00
2023-03-18T09:17:02.896Z,4.47
2023-03-18T09:23:05.283Z,3.70
2023-03-18T09:29:07.731Z,3.50
2023-03-18T09:35:13.416Z,3.53
2023-03-18T09:41:45.918Z,3.63
2023-03-18T09:48:22.658Z,4.10
2023-03-18T09:54:34.200Z,3.30
2023-03-18T10:00:38.597Z,3.15
2023-03-18T10:06:44.289Z,2.53
2023-03-18T10:12:55.649Z,3.30
2023-03-18T10:18:58.199Z,3.00
2023-03-18T10:25:27.679Z,2.60
2023-03-18T10:32:02.760Z,2.55
2023-03-18T10:38:29.768Z,2.97
2023-03-18T10:44:41.414Z,3.03
2023-03-18T10:50:57.718Z,2.22
2023-03-18T10:57:01.572Z,2.20
2023-03-18T11:03:09.048Z,2.30
2023-03-18T11:09:16.659Z,2.83
2023-03-18T11:15:23.169Z,2.67
2023-03-18T11:21:26.958Z,2.50
2023-03-18T11:27:35.934Z,2.13
2023-03-18T11:33:39.134Z,2.15
2023-03-18T11:39:42.136Z,2.00
2023-03-18T11:45:50.167Z,2.03
2023-03-18T11:58:41.024Z,1.67
2023-03-18T12:04:52.414Z,1.60
2023-03-18T12:11:06.491Z,1.95
2023-03-18T12:17:36.138Z,1.83
2023-03-18T12:23:59.409Z,1.90
2023-03-18T12:30:15.322Z,1.60
2023-03-18T12:36:30.136Z,2.00
2023-03-18T12:42:54.560Z,1.90
2023-03-18T12:49:11.695Z,2.13
2023-03-18T12:55:29.232Z,1.90
2023-03-18T13:01:36.959Z,1.70
2023-03-18T13:13:54.420Z,1.70
2023-03-18T13:20:01.956Z,1.40
2023-03-18T13:26:09.976Z,1.67
2023-03-18T13:32:48.309Z,1.60
2023-03-18T13:39:10.098Z,1.70
2023-03-18T13:45:28.525Z,1.20
2023-03-18T13:51:30.322Z,1.25
2023-03-18T13:57:46.824Z,1.05
2023-03-18T14:03:48.769Z,1.98
2023-03-18T14:10:18.225Z,1.38
2023-03-18T14:16:37.645Z,1.35
2023-03-18T14:22:39.790Z,1.40
2023-03-18T14:28:48.066Z,1.13
2023-03-18T14:34:59.022Z,1.25
2023-03-18T14:41:03.304Z,1.50
2023-03-18T14:47:20.628Z,1.23
2023-03-18T14:53:34.753Z,1.73
2023-03-18T14:59:36.570Z,1.40
2023-03-18T15:05:42.372Z,1.40
2023-03-18T15:11:46.676Z,1.40
2023-03-18T15:17:49.319Z,2.00
2023-03-18T15:23:53.951Z,2.03
2023-03-18T15:30:01.612Z,2.13
2023-03-18T15:36:14.969Z,2.03
2023-03-18T15:42:21.552Z,2.97
2023-03-18T15:48:42.186Z,2.22
2023-03-18T15:54:47.800Z,2.35
2023-03-18T16:00:50.682Z,1.60
2023-03-18T16:06:53.675Z,1.70
2023-03-18T16:13:01.001Z,1.60
2023-03-18T16:19:02.770Z,2.50
2023-03-18T16:25:05.015Z,2.05
2023-03-18T16:31:07.058Z,1.70
2023-03-18T16:37:26.954Z,1.70
2023-03-18T16:43:33.856Z,1.88
2023-03-18T16:49:37.262Z,2.10
2023-03-18T16:55:39.029Z,1.95
2023-03-18T17:01:43.658Z,2.83
2023-03-18T17:07:45.906Z,2.85
2023-03-18T17:13:48.728Z,9.70
2023-03-18T17:19:50.512Z,7.38
2023-03-18T17:26:00.225Z,2.60
2023-03-18T17:32:02.607Z,15.77
2023-03-18T17:38:04.524Z,11.63
2023-03-18T17:44:28.354Z,2.67
2023-03-18T17:50:31.450Z,2.05
2023-03-18T17:56:35.271Z,1.90
2023-03-18T18:02:40.211Z,1.90
2023-03-18T18:08:41.957Z,1.67
2023-03-18T18:14:44.316Z,7.68
2023-03-18T18:20:47.898Z,4.70
2023-03-18T18:26:50.700Z,3.30
2023-03-18T18:32:52.478Z,5.03
2023-03-18T18:38:57.329Z,2.38
2023-03-18T18:45:00.309Z,3.10
2023-03-18T18:51:04.244Z,3.78
2023-03-18T18:57:10.408Z,8.45
2023-03-18T19:03:17.761Z,5.75
2023-03-18T19:09:23.669Z,4.78
2023-03-18T19:15:26.266Z,6.60
2023-03-18T19:21:28.069Z,6.88
2023-03-18T19:27:32.360Z,4.40
2023-03-18T19:33:34.125Z,7.15
2023-03-18T19:39:36.487Z,6.60
2023-03-18T19:45:38.305Z,9.38
2023-03-18T19:51:40.145Z,7.05
2023-03-18T19:57:48.106Z,7.95
2023-03-18T20:03:55.479Z,5.38
2023-03-18T20:10:00.249Z,5.65
2023-03-18T20:16:02.116Z,5.68
2023-03-18T20:22:04.061Z,5.82
2023-03-18T20:28:11.732Z,6.43
2023-03-18T20:34:14.614Z,5.45
2023-03-18T20:40:28.560Z,4.95
2023-03-18T20:46:31.372Z,5.18
2023-03-18T20:52:33.929Z,5.30
2023-03-18T20:58:36.894Z,6.65
2023-03-18T21:04:39.683Z,6.07
2023-03-18T21:10:42.657Z,4.03
2023-03-18T21:16:45.207Z,4.95
2023-03-18T21:22:48.506Z,5.00
2023-03-18T21:28:53.072Z,4.65
2023-03-18T21:34:55.840Z,7.70
2023-03-18T21:41:02.110Z,5.28
2023-03-18T21:47:03.956Z,3.85
2023-03-18T21:53:07.081Z,3.90
2023-03-18T21:59:08.870Z,4.22
2023-03-18T22:05:14.536Z,3.90
2023-03-18T22:11:18.699Z,4.40
2023-03-18T22:17:29.511Z,5.68
2023-03-18T22:23:32.224Z,5.07
2023-03-18T22:29:33.980Z,6.00
2023-03-18T22:35:36.181Z,7.05
2023-03-18T22:41:38.225Z,7.15
2023-03-18T22:47:40.104Z,6.45
2023-03-18T22:53:44.570Z,6.18
2023-03-18T22:59:46.478Z,5.93
2023-03-18T23:05:50.472Z,6.28
2023-03-18T23:11:52.297Z,6.85
2023-03-18T23:17:54.026Z,5.93
2023-03-18T23:23:56.888Z,5.68
2023-03-18T23:29:58.659Z,5.90
2023-03-18T23:36:00.555Z,5.65
2023-03-18T23:42:02.398Z,6.13
2023-03-18T23:48:04.663Z,5.57
2023-03-18T23:54:08.149Z,6.45
